sensor_id;sensor_type;location;lat;lon;timestamp;temperature;humidity
52030;DHT22;38043;53.224;6.580;2023-07-13T00:00:38;17.00;99.90
52030;DHT22;38043;53.224;6.580;2023-07-13T00:03:04;17.00;99.90
52030;DHT22;38043;53.224;6.580;2023-07-13T00:05:30;17.00;99.90
52030;DHT22;38043;53.224;6.580;2023-07-13T00:07:56;17.00;99.90
52030;DHT22;38043;53.224;6.580;2023-07-13T00:10:22;17.00;99.90
52030;DHT22;38043;53.224;6.580;2023-07-13T00:12:48;17.00;99.90
52030;DHT22;38043;53.224;6.580;2023-07-13T00:15:22;17.00;99.90
52030;DHT22;38043;53.224;6.580;2023-07-13T00:17:53;16.90;99.90
52030;DHT22;38043;53.224;6.580;2023-07-13T00:20:21;16.90;99.90
52030;DHT22;38043;53.224;6.580;2023-07-13T00:22:48;16.90;99.90
52030;DHT22;38043;53.224;6.580;2023-07-13T00:25:15;16.90;99.90
52030;DHT22;38043;53.224;6.580;2023-07-13T00:27:42;16.90;99.90
52030;DHT22;38043;53.224;6.580;2023-07-13T00:30:08;16.90;99.90
52030;DHT22;38043;53.224;6.580;2023-07-13T00:32:34;16.90;99.90
52030;DHT22;38043;53.224;6.580;2023-07-13T00:35:01;16.90;99.90
52030;DHT22;38043;53.224;6.580;2023-07-13T00:37:28;16.90;99.90
52030;DHT22;38043;53.224;6.580;2023-07-13T00:39:54;16.90;99.90
52030;DHT22;38043;53.224;6.580;2023-07-13T00:42:20;16.80;99.90
52030;DHT22;38043;53.224;6.580;2023-07-13T00:47:47;16.90;99.90
52030;DHT22;38043;53.224;6.580;2023-07-13T00:50:14;16.90;99.90
52030;DHT22;38043;53.224;6.580;2023-07-13T00:52:46;16.80;99.90
52030;DHT22;38043;53.224;6.580;2023-07-13T00:55:14;16.80;99.90
52030;DHT22;38043;53.224;6.580;2023-07-13T00:57:41;16.80;99.90
52030;DHT22;38043;53.224;6.580;2023-07-13T01:00:08;16.80;99.90
52030;DHT22;38043;53.224;6.580;2023-07-13T01:02:39;16.80;99.90
52030;DHT22;38043;53.224;6.580;2023-07-13T01:05:14;16.80;99.90
52030;DHT22;38043;53.224;6.580;2023-07-13T01:07:41;16.80;99.90
52030;DHT22;38043;53.224;6.580;2023-07-13T01:10:08;16.80;99.90
52030;DHT22;38043;53.224;6.580;2023-07-13T01:12:34;16.80;99.90
52030;DHT22;38043;53.224;6.580;2023-07-13T01:15:01;16.80;99.90
52030;DHT22;38043;53.224;6.580;2023-07-13T01:17:28;16.70;99.90
52030;DHT22;38043;53.224;6.580;2023-07-13T01:19:55;16.70;99.90
52030;DHT22;38043;53.224;6.580;2023-07-13T01:22:21;16.70;99.90
52030;DHT22;38043;53.224;6.580;2023-07-13T01:24:52;16.70;99.90
52030;DHT22;38043;53.224;6.580;2023-07-13T01:27:24;16.70;99.90
52030;DHT22;38043;53.224;6.580;2023-07-13T01:29:51;16.60;99.90
52030;DHT22;38043;53.224;6.580;2023-07-13T01:32:23;16.60;99.90
52030;DHT22;38043;53.224;6.580;2023-07-13T01:34:53;16.60;99.90
52030;DHT22;38043;53.224;6.580;2023-07-13T01:37:24;16.60;99.90
52030;DHT22;38043;53.224;6.580;2023-07-13T01:39:50;16.60;99.90
52030;DHT22;38043;53.224;6.580;2023-07-13T01:42:16;16.60;99.90
52030;DHT22;38043;53.224;6.580;2023-07-13T01:44:41;16.60;99.90
52030;DHT22;38043;53.224;6.580;2023-07-13T01:47:07;16.60;99.90
52030;DHT22;38043;53.224;6.580;2023-07-13T01:49:33;16.60;99.90
52030;DHT22;38043;53.224;6.580;2023-07-13T01:51:58;16.60;99.90
52030;DHT22;38043;53.224;6.580;2023-07-13T01:54:24;16.60;99.90
52030;DHT22;38043;53.224;6.580;2023-07-13T01:56:50;16.60;99.90
52030;DHT22;38043;53.224;6.580;2023-07-13T01:59:16;16.60;99.90
52030;DHT22;38043;53.224;6.580;2023-07-13T02:01:41;16.60;99.90
52030;DHT22;38043;53.224;6.580;2023-07-13T02:04:07;16.60;99.90
52030;DHT22;38043;53.224;6.580;2023-07-13T02:06:33;16.60;99.90
52030;DHT22;38043;53.224;6.580;2023-07-13T02:08:59;16.60;99.90
52030;DHT22;38043;53.224;6.580;2023-07-13T02:11:25;16.60;99.90
52030;DHT22;38043;53.224;6.580;2023-07-13T02:13:51;16.60;99.90
52030;DHT22;38043;53.224;6.580;2023-07-13T02:16:17;16.50;99.90
52030;DHT22;38043;53.224;6.580;2023-07-13T02:18:43;16.60;99.90
52030;DHT22;38043;53.224;6.580;2023-07-13T02:21:08;16.60;99.90
52030;DHT22;38043;53.224;6.580;2023-07-13T02:23:35;16.50;99.90
52030;DHT22;38043;53.224;6.580;2023-07-13T02:26:03;16.50;99.90
52030;DHT22;38043;53.224;6.580;2023-07-13T02:28:29;16.50;99.90
52030;DHT22;38043;53.224;6.580;2023-07-13T02:30:54;16.50;99.90
52030;DHT22;38043;53.224;6.580;2023-07-13T02:33:20;16.50;99.90
52030;DHT22;38043;53.224;6.580;2023-07-13T02:35:46;16.50;99.90
52030;DHT22;38043;53.224;6.580;2023-07-13T02:38:11;16.50;99.90
52030;DHT22;38043;53.224;6.580;2023-07-13T02:40:37;16.40;99.90
52030;DHT22;38043;53.224;6.580;2023-07-13T02:43:03;16.40;99.90
52030;DHT22;38043;53.224;6.580;2023-07-13T02:45:29;16.40;99.90
52030;DHT22;38043;53.224;6.580;2023-07-13T02:47:55;16.40;99.90
52030;DHT22;38043;53.224;6.580;2023-07-13T02:50:21;16.40;99.90
52030;DHT22;38043;53.224;6.580;2023-07-13T02:52:47;16.40;99.90
52030;DHT22;38043;53.224;6.580;2023-07-13T02:55:12;16.40;99.90
52030;DHT22;38043;53.224;6.580;2023-07-13T02:57:38;16.40;99.90
52030;DHT22;38043;53.224;6.580;2023-07-13T03:00:05;16.30;99.90
52030;DHT22;38043;53.224;6.580;2023-07-13T03:02:31;16.30;99.90
52030;DHT22;38043;53.224;6.580;2023-07-13T03:04:58;16.30;99.90
52030;DHT22;38043;53.224;6.580;2023-07-13T03:07:24;16.30;99.90
52030;DHT22;38043;53.224;6.580;2023-07-13T03:10:00;16.20;99.90
52030;DHT22;38043;53.224;6.580;2023-07-13T03:12:26;16.30;99.90
52030;DHT22;38043;53.224;6.580;2023-07-13T03:14:51;16.20;99.90
52030;DHT22;38043;53.224;6.580;2023-07-13T03:17:17;16.20;99.90
52030;DHT22;38043;53.224;6.580;2023-07-13T03:19:43;16.20;99.90
52030;DHT22;38043;53.224;6.580;2023-07-13T03:22:09;16.30;99.90
52030;DHT22;38043;53.224;6.580;2023-07-13T03:24:35;16.10;99.90
52030;DHT22;38043;53.224;6.580;2023-07-13T03:27:04;16.10;99.90
52030;DHT22;38043;53.224;6.580;2023-07-13T03:29:30;16.10;99.90
52030;DHT22;38043;53.224;6.580;2023-07-13T03:31:56;16.10;99.90
52030;DHT22;38043;53.224;6.580;2023-07-13T03:34:22;16.10;99.90
52030;DHT22;38043;53.224;6.580;2023-07-13T03:36:47;16.10;99.90
52030;DHT22;38043;53.224;6.580;2023-07-13T03:39:13;16.10;99.90
52030;DHT22;38043;53.224;6.580;2023-07-13T03:41:39;16.10;99.90
52030;DHT22;38043;53.224;6.580;2023-07-13T03:44:05;16.20;99.90
52030;DHT22;38043;53.224;6.580;2023-07-13T03:46:31;16.20;99.90
52030;DHT22;38043;53.224;6.580;2023-07-13T03:48:57;16.20;99.90
52030;DHT22;38043;53.224;6.580;2023-07-13T03:51:23;16.20;99.90
52030;DHT22;38043;53.224;6.580;2023-07-13T03:53:49;16.20;99.90
52030;DHT22;38043;53.224;6.580;2023-07-13T03:56:17;16.20;99.90
52030;DHT22;38043;53.224;6.580;2023-07-13T03:58:45;16.20;99.90
52030;DHT22;38043;53.224;6.580;2023-07-13T04:01:12;16.20;99.90
52030;DHT22;38043;53.224;6.580;2023-07-13T04:03:38;16.30;99.90
52030;DHT22;38043;53.224;6.580;2023-07-13T04:06:12;16.20;99.90
52030;DHT22;38043;53.224;6.580;2023-07-13T04:08:43;16.30;99.90
52030;DHT22;38043;53.224;6.580;2023-07-13T04:11:09;16.20;99.90
52030;DHT22;38043;53.224;6.580;2023-07-13T04:13:34;16.20;99.90
52030;DHT22;38043;53.224;6.580;2023-07-13T04:16:00;16.20;99.90
52030;DHT22;38043;53.224;6.580;2023-07-13T04:18:26;16.20;99.90
52030;DHT22;38043;53.224;6.580;2023-07-13T04:20:52;16.20;99.90
52030;DHT22;38043;53.224;6.580;2023-07-13T04:23:18;16.10;99.90
52030;DHT22;38043;53.224;6.580;2023-07-13T04:25:45;16.20;99.90
52030;DHT22;38043;53.224;6.580;2023-07-13T04:28:11;16.20;99.90
52030;DHT22;38043;53.224;6.580;2023-07-13T04:30:36;16.20;99.90
52030;DHT22;38043;53.224;6.580;2023-07-13T04:33:02;16.20;99.90
52030;DHT22;38043;53.224;6.580;2023-07-13T04:35:28;16.20;99.90
52030;DHT22;38043;53.224;6.580;2023-07-13T04:37:53;16.20;99.90
52030;DHT22;38043;53.224;6.580;2023-07-13T04:40:20;16.20;99.90
52030;DHT22;38043;53.224;6.580;2023-07-13T04:42:46;16.30;99.90
52030;DHT22;38043;53.224;6.580;2023-07-13T04:45:15;16.20;99.90
52030;DHT22;38043;53.224;6.580;2023-07-13T04:47:42;16.30;99.90
52030;DHT22;38043;53.224;6.580;2023-07-13T04:50:09;16.30;99.90
52030;DHT22;38043;53.224;6.580;2023-07-13T04:52:36;16.30;99.90
52030;DHT22;38043;53.224;6.580;2023-07-13T04:55:03;16.30;99.90
52030;DHT22;38043;53.224;6.580;2023-07-13T04:57:28;16.40;99.90
52030;DHT22;38043;53.224;6.580;2023-07-13T04:59:54;16.40;99.90
52030;DHT22;38043;53.224;6.580;2023-07-13T05:02:21;16.40;99.90
52030;DHT22;38043;53.224;6.580;2023-07-13T05:04:48;16.50;99.90
52030;DHT22;38043;53.224;6.580;2023-07-13T05:07:14;16.50;99.90
52030;DHT22;38043;53.224;6.580;2023-07-13T05:09:39;16.60;99.90
52030;DHT22;38043;53.224;6.580;2023-07-13T05:12:07;16.60;99.90
52030;DHT22;38043;53.224;6.580;2023-07-13T05:14:34;16.70;99.90
52030;DHT22;38043;53.224;6.580;2023-07-13T05:16:59;16.80;99.90
52030;DHT22;38043;53.224;6.580;2023-07-13T05:19:26;16.80;99.90
52030;DHT22;38043;53.224;6.580;2023-07-13T05:21:51;16.90;99.90
52030;DHT22;38043;53.224;6.580;2023-07-13T05:24:17;17.00;99.90
52030;DHT22;38043;53.224;6.580;2023-07-13T05:26:46;17.00;99.90
52030;DHT22;38043;53.224;6.580;2023-07-13T05:29:11;17.20;99.90
52030;DHT22;38043;53.224;6.580;2023-07-13T05:31:37;17.20;99.90
52030;DHT22;38043;53.224;6.580;2023-07-13T05:34:03;17.30;99.90
52030;DHT22;38043;53.224;6.580;2023-07-13T05:36:29;17.40;99.90
52030;DHT22;38043;53.224;6.580;2023-07-13T05:38:54;17.40;99.90
52030;DHT22;38043;53.224;6.580;2023-07-13T05:41:20;17.50;99.90
52030;DHT22;38043;53.224;6.580;2023-07-13T05:43:46;17.60;99.90
52030;DHT22;38043;53.224;6.580;2023-07-13T05:46:11;17.60;99.90
52030;DHT22;38043;53.224;6.580;2023-07-13T05:48:37;17.70;99.90
52030;DHT22;38043;53.224;6.580;2023-07-13T05:51:03;17.80;99.90
52030;DHT22;38043;53.224;6.580;2023-07-13T05:53:30;18.00;99.90
52030;DHT22;38043;53.224;6.580;2023-07-13T05:55:56;18.20;99.90
52030;DHT22;38043;53.224;6.580;2023-07-13T05:58:22;18.40;99.90
52030;DHT22;38043;53.224;6.580;2023-07-13T06:00:48;18.50;99.90
52030;DHT22;38043;53.224;6.580;2023-07-13T06:03:14;18.60;99.90
52030;DHT22;38043;53.224;6.580;2023-07-13T06:05:41;18.70;99.90
52030;DHT22;38043;53.224;6.580;2023-07-13T06:08:07;18.90;99.90
52030;DHT22;38043;53.224;6.580;2023-07-13T06:10:34;19.00;99.90
52030;DHT22;38043;53.224;6.580;2023-07-13T06:13:00;19.20;99.90
52030;DHT22;38043;53.224;6.580;2023-07-13T06:15:27;19.40;99.90
52030;DHT22;38043;53.224;6.580;2023-07-13T06:17:53;19.70;99.90
52030;DHT22;38043;53.224;6.580;2023-07-13T06:20:18;19.70;99.90
52030;DHT22;38043;53.224;6.580;2023-07-13T06:22:44;19.80;99.90
52030;DHT22;38043;53.224;6.580;2023-07-13T06:25:10;19.90;99.90
52030;DHT22;38043;53.224;6.580;2023-07-13T06:27:36;19.90;99.90
52030;DHT22;38043;53.224;6.580;2023-07-13T06:30:02;19.90;99.90
52030;DHT22;38043;53.224;6.580;2023-07-13T06:32:28;19.80;99.90
52030;DHT22;38043;53.224;6.580;2023-07-13T06:34:54;19.80;99.90
52030;DHT22;38043;53.224;6.580;2023-07-13T06:37:23;19.90;99.90
52030;DHT22;38043;53.224;6.580;2023-07-13T06:39:50;19.90;99.90
52030;DHT22;38043;53.224;6.580;2023-07-13T06:42:16;20.00;99.90
52030;DHT22;38043;53.224;6.580;2023-07-13T06:44:42;20.00;99.90
52030;DHT22;38043;53.224;6.580;2023-07-13T06:47:08;20.10;99.90
52030;DHT22;38043;53.224;6.580;2023-07-13T06:49:33;20.20;99.90
52030;DHT22;38043;53.224;6.580;2023-07-13T06:51:59;20.30;99.90
52030;DHT22;38043;53.224;6.580;2023-07-13T06:54:25;20.40;99.90
52030;DHT22;38043;53.224;6.580;2023-07-13T06:56:51;20.40;99.90
52030;DHT22;38043;53.224;6.580;2023-07-13T06:59:16;20.40;99.90
52030;DHT22;38043;53.224;6.580;2023-07-13T07:01:42;20.60;99.90
52030;DHT22;38043;53.224;6.580;2023-07-13T07:04:08;20.60;99.90
52030;DHT22;38043;53.224;6.580;2023-07-13T07:06:34;20.60;99.90
52030;DHT22;38043;53.224;6.580;2023-07-13T07:08:59;20.70;99.90
52030;DHT22;38043;53.224;6.580;2023-07-13T07:11:25;20.70;99.90
52030;DHT22;38043;53.224;6.580;2023-07-13T07:13:54;20.60;99.90
52030;DHT22;38043;53.224;6.580;2023-07-13T07:16:21;20.70;99.90
52030;DHT22;38043;53.224;6.580;2023-07-13T07:18:47;20.80;99.90
52030;DHT22;38043;53.224;6.580;2023-07-13T07:21:14;20.90;99.90
52030;DHT22;38043;53.224;6.580;2023-07-13T07:23:40;20.80;99.90
52030;DHT22;38043;53.224;6.580;2023-07-13T07:26:06;20.70;99.90
52030;DHT22;38043;53.224;6.580;2023-07-13T07:28:34;20.50;99.90
52030;DHT22;38043;53.224;6.580;2023-07-13T07:31:00;20.30;99.90
52030;DHT22;38043;53.224;6.580;2023-07-13T07:33:26;20.20;99.90
52030;DHT22;38043;53.224;6.580;2023-07-13T07:35:52;20.10;99.90
52030;DHT22;38043;53.224;6.580;2023-07-13T07:38:20;20.10;99.90
52030;DHT22;38043;53.224;6.580;2023-07-13T07:40:46;20.30;99.90
52030;DHT22;38043;53.224;6.580;2023-07-13T07:43:12;20.40;99.90
52030;DHT22;38043;53.224;6.580;2023-07-13T07:45:40;20.50;99.90
52030;DHT22;38043;53.224;6.580;2023-07-13T07:48:06;20.60;99.90
52030;DHT22;38043;53.224;6.580;2023-07-13T07:50:32;20.80;99.90
52030;DHT22;38043;53.224;6.580;2023-07-13T07:52:59;20.80;99.90
52030;DHT22;38043;53.224;6.580;2023-07-13T07:55:25;20.80;99.90
52030;DHT22;38043;53.224;6.580;2023-07-13T07:57:52;20.70;99.90
52030;DHT22;38043;53.224;6.580;2023-07-13T08:00:21;20.60;99.90
52030;DHT22;38043;53.224;6.580;2023-07-13T08:02:47;20.40;99.90
52030;DHT22;38043;53.224;6.580;2023-07-13T08:05:14;20.30;99.90
52030;DHT22;38043;53.224;6.580;2023-07-13T08:07:40;20.20;99.90
52030;DHT22;38043;53.224;6.580;2023-07-13T08:10:09;20.00;99.90
52030;DHT22;38043;53.224;6.580;2023-07-13T08:12:36;19.90;99.90
52030;DHT22;38043;53.224;6.580;2023-07-13T08:15:03;19.70;99.90
52030;DHT22;38043;53.224;6.580;2023-07-13T08:17:29;19.60;99.90
52030;DHT22;38043;53.224;6.580;2023-07-13T08:19:54;19.70;99.90
52030;DHT22;38043;53.224;6.580;2023-07-13T08:22:25;19.70;99.90
52030;DHT22;38043;53.224;6.580;2023-07-13T08:24:50;19.60;99.90
52030;DHT22;38043;53.224;6.580;2023-07-13T08:27:25;19.80;99.90
52030;DHT22;38043;53.224;6.580;2023-07-13T08:29:52;19.80;99.90
52030;DHT22;38043;53.224;6.580;2023-07-13T08:32:19;19.80;99.90
52030;DHT22;38043;53.224;6.580;2023-07-13T08:34:45;19.90;99.90
52030;DHT22;38043;53.224;6.580;2023-07-13T08:37:11;20.00;99.90
52030;DHT22;38043;53.224;6.580;2023-07-13T08:39:38;20.10;99.90
52030;DHT22;38043;53.224;6.580;2023-07-13T08:45:03;20.10;99.90
52030;DHT22;38043;53.224;6.580;2023-07-13T08:47:35;20.10;99.90
52030;DHT22;38043;53.224;6.580;2023-07-13T08:50:04;20.00;99.90
52030;DHT22;38043;53.224;6.580;2023-07-13T08:52:37;20.10;99.90
52030;DHT22;38043;53.224;6.580;2023-07-13T08:55:17;20.30;99.90
52030;DHT22;38043;53.224;6.580;2023-07-13T08:57:56;20.50;99.90
52030;DHT22;38043;53.224;6.580;2023-07-13T09:00:37;20.70;99.90
52030;DHT22;38043;53.224;6.580;2023-07-13T09:03:07;21.20;99.90
52030;DHT22;38043;53.224;6.580;2023-07-13T09:05:44;21.30;99.90
52030;DHT22;38043;53.224;6.580;2023-07-13T09:08:35;21.40;99.90
52030;DHT22;38043;53.224;6.580;2023-07-13T09:11:14;21.30;99.90
52030;DHT22;38043;53.224;6.580;2023-07-13T09:13:52;21.20;99.90
52030;DHT22;38043;53.224;6.580;2023-07-13T09:16:23;21.00;99.90
52030;DHT22;38043;53.224;6.580;2023-07-13T09:18:56;20.90;99.90
52030;DHT22;38043;53.224;6.580;2023-07-13T09:21:26;20.80;99.90
52030;DHT22;38043;53.224;6.580;2023-07-13T09:24:17;20.80;99.90
52030;DHT22;38043;53.224;6.580;2023-07-13T09:26:47;20.90;99.90
52030;DHT22;38043;53.224;6.580;2023-07-13T09:29:27;21.10;99.90
52030;DHT22;38043;53.224;6.580;2023-07-13T09:31:57;21.40;99.90
52030;DHT22;38043;53.224;6.580;2023-07-13T09:34:25;21.70;99.90
52030;DHT22;38043;53.224;6.580;2023-07-13T09:36:51;22.00;99.90
52030;DHT22;38043;53.224;6.580;2023-07-13T09:39:36;22.30;99.90
52030;DHT22;38043;53.224;6.580;2023-07-13T09:42:14;22.60;99.90
52030;DHT22;38043;53.224;6.580;2023-07-13T09:47:19;23.00;99.90
52030;DHT22;38043;53.224;6.580;2023-07-13T09:49:45;22.90;99.90
52030;DHT22;38043;53.224;6.580;2023-07-13T09:52:14;22.70;99.90
52030;DHT22;38043;53.224;6.580;2023-07-13T09:54:45;22.50;99.50
52030;DHT22;38043;53.224;6.580;2023-07-13T09:57:17;22.40;99.80
52030;DHT22;38043;53.224;6.580;2023-07-13T09:59:49;22.50;99.90
52030;DHT22;38043;53.224;6.580;2023-07-13T10:02:33;22.50;99.90
52030;DHT22;38043;53.224;6.580;2023-07-13T10:05:05;22.30;98.80
52030;DHT22;38043;53.224;6.580;2023-07-13T10:07:32;22.10;99.30
52030;DHT22;38043;53.224;6.580;2023-07-13T10:10:00;21.90;98.10
52030;DHT22;38043;53.224;6.580;2023-07-13T10:12:30;21.70;96.30
52030;DHT22;38043;53.224;6.580;2023-07-13T10:15:01;21.50;96.20
52030;DHT22;38043;53.224;6.580;2023-07-13T10:17:32;21.30;97.20
52030;DHT22;38043;53.224;6.580;2023-07-13T10:20:05;21.20;98.00
52030;DHT22;38043;53.224;6.580;2023-07-13T10:25:28;21.70;98.20
52030;DHT22;38043;53.224;6.580;2023-07-13T10:30:39;22.10;97.20
52030;DHT22;38043;53.224;6.580;2023-07-13T10:33:10;22.10;96.00
52030;DHT22;38043;53.224;6.580;2023-07-13T10:35:39;22.10;96.20
52030;DHT22;38043;53.224;6.580;2023-07-13T10:38:19;22.20;95.70
52030;DHT22;38043;53.224;6.580;2023-07-13T10:41:04;22.40;94.70
52030;DHT22;38043;53.224;6.580;2023-07-13T10:43:36;22.50;95.80
52030;DHT22;38043;53.224;6.580;2023-07-13T10:46:06;22.40;94.10
52030;DHT22;38043;53.224;6.580;2023-07-13T10:48:34;22.10;94.60
52030;DHT22;38043;53.224;6.580;2023-07-13T10:51:04;21.90;95.30
52030;DHT22;38043;53.224;6.580;2023-07-13T10:53:33;21.80;95.30
52030;DHT22;38043;53.224;6.580;2023-07-13T10:56:10;21.90;95.20
52030;DHT22;38043;53.224;6.580;2023-07-13T10:58:42;22.20;95.10
52030;DHT22;38043;53.224;6.580;2023-07-13T11:03:53;22.90;93.90
52030;DHT22;38043;53.224;6.580;2023-07-13T11:11:40;23.60;92.70
52030;DHT22;38043;53.224;6.580;2023-07-13T11:16:52;24.10;91.80
52030;DHT22;38043;53.224;6.580;2023-07-13T11:22:11;24.00;91.60
52030;DHT22;38043;53.224;6.580;2023-07-13T11:25:20;23.80;92.20
52030;DHT22;38043;53.224;6.580;2023-07-13T11:27:52;23.80;92.10
52030;DHT22;38043;53.224;6.580;2023-07-13T11:33:04;23.90;91.20
52030;DHT22;38043;53.224;6.580;2023-07-13T11:36:21;24.10;92.30
52030;DHT22;38043;53.224;6.580;2023-07-13T11:38:35;24.40;90.70
52030;DHT22;38043;53.224;6.580;2023-07-13T11:41:15;24.60;91.10
52030;DHT22;38043;53.224;6.580;2023-07-13T11:43:41;24.80;90.70
52030;DHT22;38043;53.224;6.580;2023-07-13T11:46:21;24.50;90.80
52030;DHT22;38043;53.224;6.580;2023-07-13T11:48:48;24.40;90.90
52030;DHT22;38043;53.224;6.580;2023-07-13T11:51:22;24.20;90.50
52030;DHT22;38043;53.224;6.580;2023-07-13T11:53:51;24.00;90.10
52030;DHT22;38043;53.224;6.580;2023-07-13T11:56:17;24.00;90.10
52030;DHT22;38043;53.224;6.580;2023-07-13T11:58:43;24.30;90.60
52030;DHT22;38043;53.224;6.580;2023-07-13T12:01:29;24.60;90.30
52030;DHT22;38043;53.224;6.580;2023-07-13T12:04:00;24.60;89.10
52030;DHT22;38043;53.224;6.580;2023-07-13T12:06:32;24.40;89.60
52030;DHT22;38043;53.224;6.580;2023-07-13T12:09:03;24.30;90.70
52030;DHT22;38043;53.224;6.580;2023-07-13T12:11:40;24.30;90.20
52030;DHT22;38043;53.224;6.580;2023-07-13T12:14:18;24.40;90.20
52030;DHT22;38043;53.224;6.580;2023-07-13T12:16:45;24.70;89.90
52030;DHT22;38043;53.224;6.580;2023-07-13T12:19:31;24.90;90.00
52030;DHT22;38043;53.224;6.580;2023-07-13T12:21:58;25.20;90.10
52030;DHT22;38043;53.224;6.580;2023-07-13T12:24:24;25.40;88.20
52030;DHT22;38043;53.224;6.580;2023-07-13T12:27:02;25.50;85.60
52030;DHT22;38043;53.224;6.580;2023-07-13T12:29:30;25.60;87.40
52030;DHT22;38043;53.224;6.580;2023-07-13T12:31:59;25.30;85.40
52030;DHT22;38043;53.224;6.580;2023-07-13T12:34:28;24.80;85.30
52030;DHT22;38043;53.224;6.580;2023-07-13T12:36:54;24.40;85.90
52030;DHT22;38043;53.224;6.580;2023-07-13T12:41:48;23.80;86.20
52030;DHT22;38043;53.224;6.580;2023-07-13T12:44:27;23.70;87.50
52030;DHT22;38043;53.224;6.580;2023-07-13T12:47:02;23.60;90.10
52030;DHT22;38043;53.224;6.580;2023-07-13T12:49:31;23.70;89.00
52030;DHT22;38043;53.224;6.580;2023-07-13T12:52:02;23.80;88.70
52030;DHT22;38043;53.224;6.580;2023-07-13T12:54:29;23.70;90.60
52030;DHT22;38043;53.224;6.580;2023-07-13T12:56:57;24.00;90.00
52030;DHT22;38043;53.224;6.580;2023-07-13T12:59:30;24.10;90.30
52030;DHT22;38043;53.224;6.580;2023-07-13T13:01:59;24.40;90.10
52030;DHT22;38043;53.224;6.580;2023-07-13T13:04:25;24.50;90.70
52030;DHT22;38043;53.224;6.580;2023-07-13T13:07:01;24.50;89.30
52030;DHT22;38043;53.224;6.580;2023-07-13T13:09:27;24.50;91.30
52030;DHT22;38043;53.224;6.580;2023-07-13T13:11:53;24.60;91.30
52030;DHT22;38043;53.224;6.580;2023-07-13T13:14:19;24.70;91.00
52030;DHT22;38043;53.224;6.580;2023-07-13T13:16:49;24.80;90.00
52030;DHT22;38043;53.224;6.580;2023-07-13T13:19:24;25.00;90.60
52030;DHT22;38043;53.224;6.580;2023-07-13T13:21:53;25.10;89.20
52030;DHT22;38043;53.224;6.580;2023-07-13T13:24:21;25.10;89.00
52030;DHT22;38043;53.224;6.580;2023-07-13T13:26:50;24.70;89.40
52030;DHT22;38043;53.224;6.580;2023-07-13T13:29:20;24.70;90.50
52030;DHT22;38043;53.224;6.580;2023-07-13T13:31:49;24.90;91.00
52030;DHT22;38043;53.224;6.580;2023-07-13T13:34:16;25.10;88.80
52030;DHT22;38043;53.224;6.580;2023-07-13T13:36:46;25.20;86.70
52030;DHT22;38043;53.224;6.580;2023-07-13T13:41:44;24.50;89.20
52030;DHT22;38043;53.224;6.580;2023-07-13T13:44:10;24.20;90.80
52030;DHT22;38043;53.224;6.580;2023-07-13T13:46:36;24.00;91.90
52030;DHT22;38043;53.224;6.580;2023-07-13T13:49:02;24.00;91.60
52030;DHT22;38043;53.224;6.580;2023-07-13T13:51:28;23.80;91.90
52030;DHT22;38043;53.224;6.580;2023-07-13T13:53:55;23.60;92.50
52030;DHT22;38043;53.224;6.580;2023-07-13T13:56:21;23.60;93.00
52030;DHT22;38043;53.224;6.580;2023-07-13T13:58:47;23.90;92.20
52030;DHT22;38043;53.224;6.580;2023-07-13T14:01:22;24.00;91.90
52030;DHT22;38043;53.224;6.580;2023-07-13T14:03:50;24.20;93.50
52030;DHT22;38043;53.224;6.580;2023-07-13T14:06:17;24.50;92.70
52030;DHT22;38043;53.224;6.580;2023-07-13T14:08:43;24.70;91.50
52030;DHT22;38043;53.224;6.580;2023-07-13T14:11:14;24.90;91.40
52030;DHT22;38043;53.224;6.580;2023-07-13T14:13:53;25.10;90.00
52030;DHT22;38043;53.224;6.580;2023-07-13T14:16:21;25.20;89.70
52030;DHT22;38043;53.224;6.580;2023-07-13T14:18:48;25.40;90.20
52030;DHT22;38043;53.224;6.580;2023-07-13T14:21:16;25.70;89.70
52030;DHT22;38043;53.224;6.580;2023-07-13T14:23:46;25.80;87.20
52030;DHT22;38043;53.224;6.580;2023-07-13T14:26:17;26.10;87.70
52030;DHT22;38043;53.224;6.580;2023-07-13T14:28:49;26.50;86.50
52030;DHT22;38043;53.224;6.580;2023-07-13T14:31:17;26.80;85.40
52030;DHT22;38043;53.224;6.580;2023-07-13T14:33:43;26.60;82.90
52030;DHT22;38043;53.224;6.580;2023-07-13T14:36:26;26.20;84.20
52030;DHT22;38043;53.224;6.580;2023-07-13T14:38:52;26.30;83.50
52030;DHT22;38043;53.224;6.580;2023-07-13T14:41:19;26.10;84.80
52030;DHT22;38043;53.224;6.580;2023-07-13T14:43:46;26.20;85.00
52030;DHT22;38043;53.224;6.580;2023-07-13T14:46:32;25.90;84.30
52030;DHT22;38043;53.224;6.580;2023-07-13T14:49:10;25.80;85.30
52030;DHT22;38043;53.224;6.580;2023-07-13T14:51:37;26.00;84.30
52030;DHT22;38043;53.224;6.580;2023-07-13T14:54:05;25.80;84.10
52030;DHT22;38043;53.224;6.580;2023-07-13T14:56:31;25.90;85.20
52030;DHT22;38043;53.224;6.580;2023-07-13T14:58:57;26.20;84.10
52030;DHT22;38043;53.224;6.580;2023-07-13T15:01:23;26.60;84.50
52030;DHT22;38043;53.224;6.580;2023-07-13T15:03:51;26.50;83.50
52030;DHT22;38043;53.224;6.580;2023-07-13T15:06:18;26.00;83.90
52030;DHT22;38043;53.224;6.580;2023-07-13T15:08:44;25.80;85.10
52030;DHT22;38043;53.224;6.580;2023-07-13T15:11:13;25.90;85.90
52030;DHT22;38043;53.224;6.580;2023-07-13T15:13:40;26.20;86.50
52030;DHT22;38043;53.224;6.580;2023-07-13T15:16:23;26.50;86.00
52030;DHT22;38043;53.224;6.580;2023-07-13T15:18:50;26.70;84.30
52030;DHT22;38043;53.224;6.580;2023-07-13T15:21:20;26.30;83.50
52030;DHT22;38043;53.224;6.580;2023-07-13T15:23:46;25.90;84.00
52030;DHT22;38043;53.224;6.580;2023-07-13T15:26:14;25.80;85.10
52030;DHT22;38043;53.224;6.580;2023-07-13T15:28:44;25.80;86.20
52030;DHT22;38043;53.224;6.580;2023-07-13T15:31:36;25.60;83.70
52030;DHT22;38043;53.224;6.580;2023-07-13T15:34:13;25.10;85.50
52030;DHT22;38043;53.224;6.580;2023-07-13T15:36:40;25.20;84.90
52030;DHT22;38043;53.224;6.580;2023-07-13T15:39:06;25.20;85.40
52030;DHT22;38043;53.224;6.580;2023-07-13T15:41:32;25.40;86.00
52030;DHT22;38043;53.224;6.580;2023-07-13T15:43:59;25.00;86.40
52030;DHT22;38043;53.224;6.580;2023-07-13T15:46:26;24.80;87.50
52030;DHT22;38043;53.224;6.580;2023-07-13T15:48:53;24.60;86.30
52030;DHT22;38043;53.224;6.580;2023-07-13T15:51:31;24.30;84.90
52030;DHT22;38043;53.224;6.580;2023-07-13T15:54:02;24.00;85.70
52030;DHT22;38043;53.224;6.580;2023-07-13T15:56:35;23.70;86.90
52030;DHT22;38043;53.224;6.580;2023-07-13T15:59:02;23.40;88.70
52030;DHT22;38043;53.224;6.580;2023-07-13T16:01:29;23.40;88.70
52030;DHT22;38043;53.224;6.580;2023-07-13T16:03:55;23.20;88.60
52030;DHT22;38043;53.224;6.580;2023-07-13T16:06:27;23.10;89.60
52030;DHT22;38043;53.224;6.580;2023-07-13T16:08:55;23.00;90.00
52030;DHT22;38043;53.224;6.580;2023-07-13T16:11:41;22.80;89.90
52030;DHT22;38043;53.224;6.580;2023-07-13T16:14:08;22.60;90.80